Time;durP1;ratioP1;P1;durP2;ratioP2;P2;SDS_P1;SDS_P2;PMS_P1;PMS_P2;Temp;Humidity;BMP_temperature;BMP_pressure;BME280_temperature;BME280_humidity;BME280_pressure;Samples;Min_cycle;Max_cycle;Signal;HPM_P1;HPM_P2
2023/09/17 00:01:25;;;;;;;0.30;0.30;;;25.00;57.00;;;25.46;42.44;94980.47;5078073;28;20208;-21
2023/09/17 00:03:52;;;;;;;0.40;0.40;;;25.00;57.20;;;25.45;42.16;94982.38;5078030;28;20319;-21
2023/09/17 00:06:20;;;;;;;0.30;0.30;;;25.00;57.10;;;25.46;42.48;94969.75;5078011;28;20277;-21
2023/09/17 00:08:48;;;;;;;0.40;0.40;;;24.90;57.10;;;25.46;42.06;94973.22;5077786;28;20660;-22
2023/09/17 00:11:15;;;;;;;0.30;0.30;;;24.90;57.10;;;25.49;42.41;94980.72;5077942;28;20279;-21
2023/09/17 00:13:42;;;;;;;0.30;0.30;;;24.90;57.10;;;25.49;42.27;94971.88;5076862;28;20313;-22
2023/09/17 00:16:10;;;;;;;0.40;0.40;;;24.90;57.30;;;25.46;42.21;94973.22;5077006;28;20295;-21
2023/09/17 00:18:38;;;;;;;0.45;0.45;;;24.90;57.20;;;25.46;42.17;94975.91;5078197;28;20200;-21
2023/09/17 00:21:06;;;;;;;0.28;0.28;;;24.90;57.10;;;25.45;42.55;94977.00;5077775;28;20250;-22
2023/09/17 00:23:34;;;;;;;0.30;0.30;;;24.90;57.10;;;25.42;42.28;94977.56;5077678;28;20300;-22
2023/09/17 00:26:01;;;;;;;0.30;0.30;;;24.90;57.20;;;25.41;42.35;94970.59;5078114;28;20195;-22
2023/09/17 00:28:28;;;;;;;0.32;0.32;;;24.90;57.20;;;25.38;42.43;94971.97;5076683;28;20564;-22
2023/09/17 00:30:55;;;;;;;0.50;0.50;;;24.90;57.20;;;25.36;42.50;94974.09;5076713;28;20212;-23
2023/09/17 00:33:23;;;;;;;0.57;0.57;;;24.90;57.30;;;25.36;42.49;94979.47;5077820;28;20205;-22
2023/09/17 00:35:52;;;;;;;0.38;0.38;;;24.90;57.30;;;25.35;42.55;94972.50;5076598;28;20206;-22
2023/09/17 00:38:20;;;;;;;0.40;0.40;;;24.90;57.30;;;25.31;42.43;94979.50;5059886;28;20223;-21
2023/09/17 00:40:49;;;;;;;0.50;0.50;;;24.90;57.40;;;25.30;42.61;94971.75;5077572;28;20621;-22
2023/09/17 00:43:18;;;;;;;0.40;0.40;;;24.90;57.30;;;25.30;42.54;94975.22;5075696;28;20228;-22
2023/09/17 00:45:45;;;;;;;0.30;0.30;;;24.90;57.30;;;25.27;42.77;94967.75;5077377;28;20632;-22
2023/09/17 00:48:13;;;;;;;0.30;0.30;;;24.80;57.40;;;25.29;42.38;94967.47;5076230;28;20214;-21
2023/09/17 00:50:40;;;;;;;0.32;0.32;;;24.80;57.30;;;25.28;42.58;94964.00;5076320;28;20210;-22
2023/09/17 00:53:08;;;;;;;0.30;0.30;;;24.80;57.40;;;25.26;42.73;94963.47;5077507;28;20208;-22
2023/09/17 00:55:37;;;;;;;0.40;0.40;;;24.80;57.50;;;25.23;42.72;94953.28;5059695;28;20215;-22
2023/09/17 00:58:05;;;;;;;0.57;0.57;;;24.80;57.40;;;25.21;42.54;94955.47;5076062;28;20201;-21
2023/09/17 01:00:38;;;;;;;0.60;0.60;;;24.80;57.40;;;25.17;42.53;94951.72;5077107;28;20197;-22
2023/09/17 01:03:08;;;;;;;0.30;0.30;;;24.80;57.40;;;25.14;42.87;94946.94;5077610;28;20646;-22
2023/09/17 01:05:42;;;;;;;0.40;0.40;;;24.70;57.40;;;25.13;42.48;94945.34;5077176;28;20292;-22
2023/09/17 01:08:10;;;;;;;0.40;0.40;;;24.70;57.50;;;25.09;42.95;94948.59;5075900;28;20196;-22
2023/09/17 01:10:41;;;;;;;0.40;0.40;;;24.70;57.40;;;25.10;42.73;94947.50;5077985;28;20570;-22
2023/09/17 01:13:09;;;;;;;0.30;0.30;;;24.70;57.50;;;25.06;42.70;94940.28;5076817;28;20642;-22
2023/09/17 01:15:37;;;;;;;0.30;0.30;;;24.70;57.50;;;25.04;43.00;94943.25;5076814;28;20635;-23
2023/09/17 01:18:07;;;;;;;0.40;0.40;;;24.70;57.60;;;25.06;42.79;94941.09;5077018;28;20199;-22
2023/09/17 01:21:14;;;;;;;0.40;0.40;;;24.70;57.60;;;24.99;42.83;94940.63;5059203;28;20216;-23
2023/09/17 01:23:51;;;;;;;0.50;0.50;;;24.60;57.40;;;24.98;43.17;94936.34;5030491;28;20207;-22
2023/09/17 01:26:26;;;;;;;0.40;0.40;;;24.60;57.60;;;24.97;42.51;94947.38;5076644;28;20196;-22
2023/09/17 01:28:54;;;;;;;0.40;0.40;;;24.60;57.50;;;24.98;42.91;94944.41;5075627;28;20187;-22
2023/09/17 01:31:23;;;;;;;0.40;0.40;;;24.60;57.50;;;24.97;42.82;94950.06;5092341;28;20193;-21
2023/09/17 01:33:53;;;;;;;0.50;0.50;;;24.60;57.60;;;24.95;42.85;94939.63;5092587;28;20660;-22
2023/09/17 01:36:33;;;;;;;0.50;0.50;;;24.60;57.50;;;24.93;42.86;94947.91;5075476;28;20200;-22
2023/09/17 01:39:13;;;;;;;0.57;0.57;;;24.50;57.50;;;24.94;42.85;94948.75;5058976;28;20258;-21
2023/09/17 01:41:41;;;;;;;0.30;0.30;;;24.50;57.60;;;24.92;43.01;94961.63;5058876;28;20207;-21
2023/09/17 01:44:10;;;;;;;0.40;0.40;;;24.50;57.60;;;24.88;42.69;94960.59;5075566;28;20539;-22
2023/09/17 01:46:39;;;;;;;0.32;0.32;;;24.50;57.50;;;24.84;43.05;94954.19;5058636;28;20535;-21
2023/09/17 01:49:12;;;;;;;0.50;0.50;;;24.50;57.50;;;24.76;43.19;94950.22;5075138;28;20652;-21
2023/09/17 01:51:39;;;;;;;0.40;0.40;;;24.50;57.50;;;24.70;43.22;94954.81;5076086;28;20672;-22
2023/09/17 01:54:07;;;;;;;0.30;0.30;;;24.50;57.50;;;24.61;43.11;94951.13;5074150;28;20624;-21
2023/09/17 01:56:41;;;;;;;0.40;0.40;;;24.40;57.40;;;24.55;43.19;94961.09;5075064;28;20690;-22
2023/09/17 01:59:09;;;;;;;0.57;0.57;;;24.40;57.50;;;24.51;43.30;94957.38;5074789;28;20206;-23
2023/09/17 02:01:36;;;;;;;0.32;0.32;;;24.30;57.50;;;24.51;43.39;94959.22;5075198;28;20204;-21
2023/09/17 02:04:04;;;;;;;0.30;0.30;;;24.30;57.60;;;24.50;43.97;94957.63;5075695;28;20229;-22
2023/09/17 02:06:31;;;;;;;0.40;0.40;;;24.30;57.70;;;24.53;43.64;94957.09;5075789;28;20246;-22
2023/09/17 02:08:58;;;;;;;0.30;0.30;;;24.20;57.70;;;24.53;43.36;94957.88;5075619;28;20206;-22
2023/09/17 02:11:26;;;;;;;0.40;0.40;;;24.20;57.80;;;24.53;43.73;94965.91;5075666;28;20186;-21
2023/09/17 02:13:53;;;;;;;0.38;0.38;;;24.20;57.80;;;24.56;43.44;94959.19;5075457;28;20666;-22
2023/09/17 02:16:20;;;;;;;0.40;0.40;;;24.20;57.90;;;24.57;43.42;94961.59;5074665;28;20295;-23
2023/09/17 02:18:48;;;;;;;0.40;0.40;;;24.20;57.90;;;24.59;43.40;94961.31;5075705;28;20203;-22
2023/09/17 02:21:15;;;;;;;0.40;0.40;;;24.10;58.00;;;24.56;43.44;94959.19;5075771;28;20501;-21
2023/09/17 02:23:44;;;;;;;0.40;0.40;;;24.20;58.00;;;24.58;43.25;94965.09;5075412;28;20188;-22
2023/09/17 02:26:12;;;;;;;0.40;0.40;;;24.20;58.00;;;24.56;43.33;94962.69;5075948;28;20214;-24
2023/09/17 02:28:39;;;;;;;0.30;0.30;;;24.20;58.00;;;24.51;43.30;94956.56;5075655;28;20190;-22
2023/09/17 02:31:06;;;;;;;0.40;0.40;;;24.20;57.90;;;24.47;43.51;94953.63;5075290;28;20189;-21
2023/09/17 02:33:34;;;;;;;0.30;0.30;;;24.20;57.90;;;24.48;43.57;94959.81;5074437;28;20206;-22
2023/09/17 02:36:03;;;;;;;0.40;0.40;;;24.20;58.00;;;24.49;43.42;94962.19;5075828;28;20200;-23
2023/09/17 02:38:30;;;;;;;0.40;0.40;;;24.10;57.90;;;24.49;43.51;94950.69;5075290;28;20195;-22
2023/09/17 02:40:57;;;;;;;0.30;0.30;;;24.20;58.00;;;24.46;43.48;94958.19;5075309;28;20192;-23
2023/09/17 02:43:24;;;;;;;0.30;0.30;;;24.10;58.00;;;24.47;43.67;94956.31;5057709;28;20599;-23
2023/09/17 02:45:54;;;;;;;0.40;0.40;;;24.10;58.00;;;24.47;43.70;94958.97;5074102;28;20240;-22
2023/09/17 02:48:21;;;;;;;0.45;0.45;;;24.10;58.00;;;24.47;43.49;94964.34;5075164;28;20184;-24
2023/09/17 02:50:48;;;;;;;0.30;0.30;;;24.10;58.00;;;24.43;43.66;94955.28;5074301;28;20229;-21
2023/09/17 02:53:15;;;;;;;0.40;0.40;;;24.10;58.00;;;24.45;43.40;94961.94;5075331;28;20278;-21
2023/09/17 02:55:45;;;;;;;0.40;0.40;;;24.10;58.00;;;24.40;43.54;94959.31;5075045;28;20192;-21
2023/09/17 02:58:12;;;;;;;0.30;0.30;;;24.10;58.00;;;24.39;43.56;94963.06;5075027;28;20237;-22
2023/09/17 03:00:43;;;;;;;0.40;0.40;;;24.10;58.00;;;24.35;43.60;94958.53;5073917;28;20208;-22
2023/09/17 03:03:10;;;;;;;0.30;0.30;;;24.10;57.90;;;24.30;43.58;94960.19;5074306;28;20233;-22
2023/09/17 03:05:38;;;;;;;0.38;0.38;;;24.10;58.00;;;24.30;43.61;94954.81;5073599;28;20742;-21
2023/09/17 03:08:08;;;;;;;0.50;0.50;;;24.10;58.10;;;24.32;43.79;94943.03;5073922;28;20286;-22
2023/09/17 03:10:42;;;;;;;0.50;0.50;;;24.00;58.10;;;24.33;43.91;94958.00;5075021;28;20193;-23
2023/09/17 03:13:12;;;;;;;0.30;0.30;;;24.00;58.10;;;24.32;43.66;94956.44;5073737;28;20241;-22
2023/09/17 03:15:40;;;;;;;0.40;0.40;;;24.00;58.20;;;24.30;43.81;94960.19;5057448;28;20203;-21
2023/09/17 03:18:07;;;;;;;0.40;0.40;;;24.00;58.20;;;24.28;43.88;94953.50;5074144;28;20218;-23
2023/09/17 03:20:35;;;;;;;0.40;0.40;;;24.00;58.30;;;24.27;43.87;94960.72;5074198;28;20199;-21
2023/09/17 03:23:04;;;;;;;0.32;0.32;;;24.00;58.30;;;24.28;43.96;94954.28;5090634;28;20199;-21
2023/09/17 03:25:34;;;;;;;0.40;0.40;;;24.00;58.30;;;24.30;43.96;94962.03;5074283;28;20273;-21
2023/09/17 03:28:01;;;;;;;0.32;0.32;;;24.00;58.50;;;24.30;43.73;94959.38;5073776;28;20196;-21
2023/09/17 03:30:28;;;;;;;0.40;0.40;;;24.00;58.30;;;24.33;43.62;94961.50;5090432;28;20192;-21
2023/09/17 03:32:58;;;;;;;0.40;0.40;;;24.00;58.40;;;24.32;43.84;94959.09;5073690;28;20295;-21
2023/09/17 03:35:39;;;;;;;0.60;0.60;;;24.00;59.70;;;24.32;43.78;94965.25;5059439;28;20213;-21
2023/09/17 03:38:07;;;;;;;0.40;0.40;;;24.00;58.40;;;24.33;43.96;94969.53;5057152;28;20652;-22
2023/09/17 03:40:34;;;;;;;0.30;0.30;;;24.00;58.50;;;24.33;43.78;94969.53;5074856;28;20192;-21
2023/09/17 03:43:03;;;;;;;0.30;0.30;;;24.00;58.40;;;24.32;43.98;94964.47;5073591;28;20209;-24
2023/09/17 03:45:31;;;;;;;0.40;0.40;;;24.00;58.50;;;24.29;43.93;94971.97;5073638;28;20234;-21
2023/09/17 03:47:58;;;;;;;0.30;0.30;;;23.90;58.40;;;24.28;43.90;94967.69;5073568;28;20195;-21
2023/09/17 03:50:27;;;;;;;0.30;0.30;;;24.00;58.50;;;24.29;44.24;94968.47;5073880;28;20580;-22
2023/09/17 03:52:58;;;;;;;0.30;0.30;;;24.00;58.50;;;24.29;44.14;94969.28;5057163;28;20230;-21
2023/09/17 03:55:26;;;;;;;0.30;0.30;;;24.00;58.60;;;24.29;44.10;94963.94;5073664;28;20690;-23
2023/09/17 03:57:56;;;;;;;0.40;0.40;;;24.00;58.50;;;24.32;44.00;94967.94;5073832;28;20589;-22
2023/09/17 04:00:25;;;;;;;0.30;0.30;;;24.00;58.50;;;24.32;43.85;94964.47;5073362;28;20218;-22
2023/09/17 04:02:53;;;;;;;0.40;0.40;;;24.00;58.50;;;24.32;43.93;94967.94;5073399;28;20551;-21
2023/09/17 04:05:21;;;;;;;0.30;0.30;;;24.00;58.50;;;24.29;43.88;94971.16;5073324;28;20579;-23
2023/09/17 04:07:48;;;;;;;0.30;0.30;;;24.00;58.40;;;24.29;43.77;94969.28;5074326;28;20192;-22
2023/09/17 04:10:17;;;;;;;0.40;0.40;;;24.00;58.40;;;24.26;43.74;94963.69;5074287;28;20688;-21
2023/09/17 04:12:45;;;;;;;0.40;0.40;;;24.00;58.30;;;24.22;43.90;94976.06;5074236;28;20228;-22
2023/09/17 04:15:19;;;;;;;0.35;0.35;;;24.00;58.30;;;24.20;43.79;94970.94;5073483;28;20623;-22
2023/09/17 04:17:49;;;;;;;0.45;0.45;;;24.00;58.30;;;24.19;44.01;94971.22;5075651;28;20216;-22
2023/09/17 04:20:21;;;;;;;0.40;0.40;;;24.00;58.40;;;24.19;44.07;94977.38;5076758;28;20215;-21
2023/09/17 04:22:50;;;;;;;0.40;0.40;;;23.90;58.20;;;24.18;43.82;94967.75;5076916;28;20220;-22
2023/09/17 04:25:19;;;;;;;0.40;0.40;;;23.90;58.40;;;24.20;43.95;94970.16;5076709;28;20223;-22
2023/09/17 04:27:49;;;;;;;0.30;0.30;;;23.90;58.40;;;24.18;43.75;94977.66;5093743;28;20199;-22
2023/09/17 04:30:19;;;;;;;0.35;0.35;;;23.90;58.40;;;24.17;43.85;94979.56;5076606;28;20207;-21
2023/09/17 04:32:49;;;;;;;0.40;0.40;;;23.90;58.30;;;24.13;43.92;94987.34;5093567;28;20254;-21
2023/09/17 04:35:18;;;;;;;0.40;0.40;;;23.90;58.30;;;24.11;43.87;94992.16;5076617;28;20212;-21
2023/09/17 04:37:48;;;;;;;0.40;0.40;;;23.90;58.40;;;24.08;43.95;94995.41;5076526;28;20549;-22
2023/09/17 04:40:24;;;;;;;0.35;0.35;;;23.90;58.50;;;24.10;44.07;95008.53;5076453;28;20646;-21
2023/09/17 04:42:52;;;;;;;0.40;0.40;;;23.80;58.40;;;24.07;44.02;94993.00;5076513;28;20700;-21
2023/09/17 04:45:38;;;;;;;0.40;0.40;;;23.80;58.50;;;24.05;44.10;94998.63;5093215;28;20693;-22
2023/09/17 04:48:11;;;;;;;0.30;0.30;;;23.80;58.50;;;24.03;44.18;94998.09;5076463;28;20187;-23
2023/09/17 04:50:42;;;;;;;0.40;0.40;;;23.80;58.70;;;24.01;44.45;95000.28;5076222;28;20195;-21
2023/09/17 04:53:14;;;;;;;0.60;0.60;;;23.80;60.00;;;23.94;44.43;94994.41;5076361;28;20247;-22
2023/09/17 04:55:44;;;;;;;0.40;0.40;;;23.70;58.70;;;23.95;44.29;95004.03;5059933;28;20205;-21
2023/09/17 04:58:14;;;;;;;0.38;0.38;;;23.70;58.70;;;23.92;44.60;95001.88;5076232;28;20361;-21
2023/09/17 05:00:43;;;;;;;0.40;0.40;;;23.70;58.80;;;23.91;45.12;95003.75;5076952;28;20601;-21
2023/09/17 05:03:11;;;;;;;0.40;0.40;;;23.70;58.90;;;23.89;44.57;95005.91;5077083;28;20197;-21
2023/09/17 05:05:39;;;;;;;0.40;0.40;;;23.70;59.00;;;23.86;44.73;95002.97;5076014;28;20689;-21
2023/09/17 05:08:07;;;;;;;0.30;0.30;;;23.70;58.90;;;23.86;44.82;95009.13;5075981;28;20200;-22
2023/09/17 05:10:35;;;;;;;0.40;0.40;;;23.70;59.10;;;23.87;44.78;95009.94;5075851;28;20253;-22
2023/09/17 05:13:02;;;;;;;0.30;0.30;;;23.70;59.20;;;23.87;44.79;95016.09;5075746;28;20235;-21
2023/09/17 05:15:30;;;;;;;0.40;0.40;;;23.60;59.20;;;23.86;45.22;95019.84;5076866;28;20201;-21
2023/09/17 05:17:58;;;;;;;0.50;0.50;;;23.70;59.50;;;23.86;44.82;95027.88;5077028;28;20212;-21
2023/09/17 05:20:25;;;;;;;0.40;0.40;;;23.70;59.30;;;23.89;44.93;95029.19;5059130;28;20200;-23
2023/09/17 05:22:56;;;;;;;0.40;0.40;;;23.60;59.30;;;23.92;45.19;95031.34;5075998;28;20510;-22
2023/09/17 05:25:23;;;;;;;0.40;0.40;;;23.60;59.50;;;23.95;45.17;95030.84;5075555;28;20672;-22
2023/09/17 05:27:50;;;;;;;0.40;0.40;;;23.70;59.60;;;24.00;45.18;95040.72;5075435;28;20191;-22
2023/09/17 05:30:17;;;;;;;0.40;0.40;;;23.70;59.70;;;24.02;45.10;95041.25;5076402;28;20184;-22
2023/09/17 05:32:45;;;;;;;0.40;0.40;;;23.70;59.60;;;24.05;45.26;95043.41;5059063;28;20200;-21
2023/09/17 05:35:12;;;;;;;0.40;0.40;;;23.80;59.70;;;24.08;45.27;95050.88;5092325;28;20582;-23
2023/09/17 05:37:40;;;;;;;0.40;0.40;;;23.80;59.70;;;24.11;45.10;95058.38;5075448;28;20205;-22
2023/09/17 05:40:09;;;;;;;0.40;0.40;;;23.80;59.70;;;24.13;45.29;95053.53;5075267;28;20613;-22
2023/09/17 05:42:37;;;;;;;0.50;0.50;;;23.90;59.80;;;24.19;45.02;95054.31;5075324;28;20585;-22
2023/09/17 05:45:05;;;;;;;0.30;0.30;;;23.90;59.80;;;24.22;45.22;95056.47;5076168;28;20221;-22
2023/09/17 05:47:33;;;;;;;0.30;0.30;;;24.00;59.90;;;24.25;45.30;95056.69;5075197;28;20202;-22
2023/09/17 05:50:00;;;;;;;0.40;0.40;;;24.00;59.70;;;24.28;45.16;95069.53;5075171;28;20209;-23
2023/09/17 05:52:32;;;;;;;0.40;0.40;;;24.00;59.70;;;24.32;45.30;95061.75;5092016;28;20242;-22
2023/09/17 05:55:04;;;;;;;0.40;0.40;;;24.10;59.80;;;24.37;45.32;95063.63;5058801;28;20208;-22
2023/09/17 05:57:33;;;;;;;0.52;0.52;;;24.10;59.80;;;24.40;45.33;95069.22;5076148;28;20566;-22
2023/09/17 06:00:03;;;;;;;0.30;0.30;;;24.20;59.80;;;24.45;45.12;95071.09;5091899;28;20205;-22
2023/09/17 06:02:40;;;;;;;0.30;0.30;;;24.20;59.70;;;24.45;45.42;95066.53;5075940;28;20185;-22
2023/09/17 06:05:10;;;;;;;0.30;0.30;;;24.30;59.70;;;24.49;45.21;95068.66;5074844;28;20306;-22
2023/09/17 06:07:37;;;;;;;0.40;0.40;;;24.30;59.60;;;24.51;45.16;95063.81;5075743;28;20542;-22
2023/09/17 06:10:05;;;;;;;0.30;0.30;;;24.30;59.70;;;24.52;45.12;95068.09;5074816;28;20225;-23
2023/09/17 06:12:32;;;;;;;0.30;0.30;;;24.40;59.70;;;24.54;45.23;95069.41;5075606;28;20237;-22
2023/09/17 06:15:01;;;;;;;0.30;0.30;;;24.40;59.60;;;24.58;45.11;95070.47;5091661;28;20217;-22
2023/09/17 06:17:28;;;;;;;0.32;0.32;;;24.40;59.60;;;24.60;45.32;95070.19;5091601;28;20209;-23
2023/09/17 06:19:55;;;;;;;0.32;0.32;;;24.40;59.60;;;24.62;45.20;95071.53;5074604;28;20226;-23
2023/09/17 06:22:23;;;;;;;0.40;0.40;;;24.50;59.80;;;24.65;45.20;95078.22;5092116;28;20584;-22
2023/09/17 06:24:51;;;;;;;0.38;0.38;;;24.40;59.50;;;24.67;45.21;95075.28;5074523;28;20206;-22
2023/09/17 06:27:18;;;;;;;0.30;0.30;;;24.50;59.60;;;24.68;45.25;95079.56;5075752;28;20192;-22
2023/09/17 06:29:45;;;;;;;0.40;0.40;;;24.50;59.60;;;24.68;45.28;95079.56;5075380;28;20546;-23
2023/09/17 06:32:13;;;;;;;0.40;0.40;;;24.50;59.60;;;24.71;45.23;95069.09;5074912;28;20227;-22
2023/09/17 06:34:41;;;;;;;0.40;0.40;;;24.60;59.70;;;24.71;45.41;95073.66;5057973;28;20197;-22
2023/09/17 06:37:08;;;;;;;0.30;0.30;;;24.50;59.50;;;24.73;45.10;95071.47;5074323;28;20254;-23
2023/09/17 06:39:36;;;;;;;0.30;0.30;;;24.60;59.70;;;24.76;45.12;95065.56;5074096;28;20196;-22
2023/09/17 06:42:04;;;;;;;0.30;0.30;;;24.60;59.60;;;24.80;45.11;95071.19;5074729;28;20237;-22
2023/09/17 06:44:32;;;;;;;0.40;0.40;;;24.60;59.70;;;24.82;45.33;95071.72;5074231;28;20251;-22
2023/09/17 06:46:59;;;;;;;0.40;0.40;;;24.70;59.70;;;24.82;45.27;95066.34;5075073;28;20224;-23
2023/09/17 06:49:27;;;;;;;0.30;0.30;;;24.70;59.70;;;24.84;44.72;95077.59;5075110;28;20527;-23
2023/09/17 06:51:55;;;;;;;0.40;0.40;;;24.70;59.70;;;24.87;45.34;95080.50;5074398;28;20203;-22
2023/09/17 06:54:22;;;;;;;0.40;0.40;;;24.70;59.70;;;24.88;45.27;95082.13;5075339;28;20241;-23
2023/09/17 06:56:51;;;;;;;0.47;0.47;;;24.70;59.70;;;24.89;45.38;95077.53;5075030;28;20198;-22
2023/09/17 06:59:18;;;;;;;0.40;0.40;;;24.70;59.60;;;24.90;45.32;95084.50;5075008;28;20211;-21
2023/09/17 07:01:46;;;;;;;0.30;0.30;;;24.80;59.70;;;24.93;45.06;95081.28;5073981;28;20191;-23
2023/09/17 07:04:13;;;;;;;0.20;0.20;;;24.80;59.70;;;24.93;45.17;95092.81;5074304;28;20275;-21
2023/09/17 07:06:41;;;;;;;0.55;0.55;;;24.80;59.60;;;24.96;45.18;95091.44;5075361;28;20288;-21
2023/09/17 07:09:08;;;;;;;0.30;0.30;;;24.80;59.60;;;24.99;44.86;95095.47;5074897;28;20196;-22
2023/09/17 07:11:35;;;;;;;0.50;0.50;;;24.80;59.50;;;25.00;44.91;95091.69;5074916;28;20247;-22
2023/09/17 07:14:08;;;;;;;0.30;0.30;;;24.90;59.60;;;25.01;45.01;95091.44;5074721;28;20236;-22
2023/09/17 07:16:37;;;;;;;0.30;0.30;;;24.90;59.60;;;25.02;44.96;95093.00;5075180;28;20200;-22
2023/09/17 07:19:05;;;;;;;0.50;0.50;;;24.90;59.50;;;25.04;44.97;95095.44;5074830;28;20206;-22
2023/09/17 07:21:32;;;;;;;0.35;0.35;;;24.90;59.50;;;25.05;44.78;95103.22;5074811;28;20284;-21
2023/09/17 07:23:59;;;;;;;0.30;0.30;;;24.90;59.60;;;25.07;45.35;95101.06;5075019;28;20199;-23
2023/09/17 07:26:28;;;;;;;0.30;0.30;;;24.90;59.60;;;25.06;44.93;95099.44;5074904;28;20221;-23
2023/09/17 07:28:55;;;;;;;0.30;0.30;;;24.90;59.50;;;25.06;44.73;95094.09;5074719;28;20204;-23
2023/09/17 07:31:22;;;;;;;0.30;0.30;;;24.90;59.50;;;25.09;44.86;95095.41;5074716;28;20606;-21
2023/09/17 07:33:49;;;;;;;0.30;0.30;;;24.90;59.50;;;25.10;44.97;95103.16;5073799;28;20189;-20
2023/09/17 07:36:17;;;;;;;0.40;0.40;;;24.90;59.50;;;25.10;45.08;95105.84;5075334;28;20227;-21
2023/09/17 07:38:44;;;;;;;0.40;0.40;;;24.90;59.60;;;25.12;45.05;95116.31;5074658;28;20254;-21
2023/09/17 07:41:11;;;;;;;0.30;0.30;;;24.90;59.60;;;25.13;44.98;95112.53;5074919;28;20212;-21
2023/09/17 07:43:38;;;;;;;0.30;0.30;;;24.90;60.50;;;25.12;45.10;95119.00;5075347;28;20207;-22
2023/09/17 07:46:06;;;;;;;0.32;0.32;;;24.90;59.60;;;25.12;45.02;95112.81;5074718;28;20215;-21
2023/09/17 07:48:34;;;;;;;0.47;0.47;;;24.90;59.60;;;25.13;45.25;95103.69;5074500;28;20194;-21
2023/09/17 07:51:01;;;;;;;0.30;0.30;;;24.90;59.60;;;25.13;45.26;95104.50;5074613;28;20208;-21
2023/09/17 07:53:28;;;;;;;0.38;0.38;;;24.90;59.50;;;25.13;45.08;95107.16;5076225;28;20213;-22
2023/09/17 07:55:56;;;;;;;0.50;0.50;;;24.90;59.60;;;25.17;45.13;95108.22;5078348;28;20642;-21
2023/09/17 07:58:23;;;;;;;0.30;0.30;;;24.90;59.70;;;25.18;45.00;95109.03;5078567;28;20197;-21
2023/09/17 08:00:50;;;;;;;0.30;0.30;;;25.00;59.70;;;25.20;45.21;95109.56;5078266;28;20200;-22
2023/09/17 08:03:18;;;;;;;0.38;0.38;;;25.00;59.80;;;25.21;45.33;95113.84;5078826;28;20526;-22
2023/09/17 08:05:47;;;;;;;0.30;0.30;;;25.00;59.70;;;25.20;44.97;95110.34;5078583;28;20301;-22
2023/09/17 08:08:14;;;;;;;0.40;0.40;;;25.00;59.70;;;25.23;45.13;95119.72;5078132;28;20205;-22
2023/09/17 08:10:42;;;;;;;0.30;0.30;;;25.00;59.70;;;25.24;45.27;95113.25;5078030;28;20194;-22
2023/09/17 08:13:09;;;;;;;0.30;0.30;;;25.00;59.70;;;25.24;44.91;95118.63;5077948;28;20727;-22
2023/09/17 08:15:37;;;;;;;0.40;0.40;;;25.00;59.70;;;25.27;45.32;95123.47;5078136;28;20210;-21
2023/09/17 08:18:05;;;;;;;0.32;0.32;;;25.00;59.80;;;25.26;45.51;95125.31;5077906;28;20263;-22
2023/09/17 08:20:32;;;;;;;0.30;0.30;;;25.00;59.90;;;25.26;45.25;95136.06;5077850;28;20647;-22
2023/09/17 08:22:59;;;;;;;0.40;0.40;;;25.10;59.80;;;25.28;45.13;95132.31;5077896;28;20553;-22
2023/09/17 08:25:27;;;;;;;0.50;0.50;;;25.10;60.00;;;25.27;45.21;95131.50;5077657;28;20207;-22
2023/09/17 08:27:54;;;;;;;0.30;0.30;;;25.00;60.00;;;25.28;45.50;95125.06;5076757;28;20196;-21
2023/09/17 08:30:21;;;;;;;0.40;0.40;;;25.10;60.10;;;25.29;45.62;95121.28;5078001;28;20626;-21
2023/09/17 08:32:48;;;;;;;0.20;0.20;;;25.10;60.20;;;25.30;45.81;95119.41;5077746;28;20555;-22
2023/09/17 08:35:15;;;;;;;0.50;0.50;;;25.10;60.30;;;25.31;45.66;95124.50;5076752;28;20196;-22
2023/09/17 08:37:44;;;;;;;0.30;0.30;;;25.10;60.40;;;25.32;45.79;95119.94;5076546;28;20196;-23
2023/09/17 08:40:14;;;;;;;0.32;0.32;;;25.10;60.50;;;25.32;45.97;95119.94;5077795;28;20202;-22
2023/09/17 08:42:42;;;;;;;0.38;0.38;;;25.10;60.50;;;25.35;45.73;95124.72;5077817;28;20611;-21
2023/09/17 08:45:11;;;;;;;0.30;0.30;;;25.10;60.50;;;25.37;46.06;95119.91;5077601;28;20198;-22
2023/09/17 08:47:39;;;;;;;0.30;0.30;;;25.10;60.50;;;25.36;45.74;95116.38;5077333;28;20214;-22
2023/09/17 08:50:09;;;;;;;0.30;0.30;;;25.20;60.60;;;25.40;46.07;95119.34;5077621;28;20206;-21
2023/09/17 08:52:57;;;;;;;0.40;0.40;;;25.20;60.60;;;25.39;45.79;95123.94;5077471;28;20185;-21
2023/09/17 08:55:24;;;;;;;0.30;0.30;;;25.20;60.60;;;25.40;46.00;95114.78;5076993;28;20282;-22
2023/09/17 08:58:09;;;;;;;0.35;0.35;;;25.20;61.50;;;25.42;46.36;95115.28;5076577;28;20272;-22
2023/09/17 09:00:39;;;;;;;0.30;0.30;;;25.20;60.70;;;25.45;46.46;95113.13;5077462;28;20244;-22
2023/09/17 09:03:08;;;;;;;0.40;0.40;;;25.30;60.70;;;25.47;45.91;95114.47;5076166;28;20202;-22
2023/09/17 09:05:36;;;;;;;0.30;0.30;;;25.30;60.70;;;25.48;46.19;95109.91;5076149;28;20190;-21
2023/09/17 09:08:04;;;;;;;0.30;0.30;;;25.30;60.70;;;25.51;46.16;95114.69;5076172;28;20528;-22
2023/09/17 09:10:32;;;;;;;0.38;0.38;;;25.30;60.90;;;25.53;46.44;95116.00;5077256;28;20243;-22
2023/09/17 09:13:00;;;;;;;0.30;0.30;;;25.30;60.90;;;25.55;46.30;95123.81;5076656;28;20259;-22
2023/09/17 09:15:27;;;;;;;0.30;0.30;;;25.30;60.90;;;25.56;46.28;95112.78;5076827;28;20210;-22
2023/09/17 09:17:55;;;;;;;0.38;0.38;;;25.40;60.90;;;25.59;46.65;95114.09;5076853;28;20203;-22
2023/09/17 09:20:22;;;;;;;0.30;0.30;;;25.40;61.00;;;25.60;46.47;95118.38;5077055;28;20194;-24
2023/09/17 09:22:50;;;;;;;0.30;0.30;;;25.40;61.00;;;25.63;46.55;95108.97;5076846;28;20292;-21
2023/09/17 09:25:18;;;;;;;0.30;0.30;;;25.40;61.00;;;25.65;46.53;95121.03;5076850;28;20212;-22
2023/09/17 09:27:46;;;;;;;0.40;0.40;;;25.40;61.00;;;25.66;46.85;95119.94;5076835;28;20217;-21
2023/09/17 09:30:16;;;;;;;0.40;0.40;;;25.40;61.00;;;25.67;46.83;95112.66;5076830;28;20234;-22
2023/09/17 09:32:45;;;;;;;0.30;0.30;;;25.50;61.00;;;25.69;46.44;95116.69;5076567;28;20186;-22
2023/09/17 09:35:12;;;;;;;0.40;0.40;;;25.50;61.10;;;25.70;46.42;95110.22;5076743;28;20289;-21
2023/09/17 09:37:40;;;;;;;0.30;0.30;;;25.50;61.00;;;25.75;46.90;95119.34;5075815;28;20258;-22
2023/09/17 09:40:08;;;;;;;0.40;0.40;;;25.50;61.10;;;25.75;46.81;95117.44;5076346;28;20201;-21
2023/09/17 09:42:35;;;;;;;0.30;0.30;;;25.50;61.10;;;25.77;46.84;95126.03;5076277;28;20222;-21
2023/09/17 09:45:03;;;;;;;0.40;0.40;;;25.60;61.10;;;25.78;46.76;95111.50;5076366;28;20205;-23
2023/09/17 09:47:31;;;;;;;0.50;0.50;;;25.60;61.10;;;25.81;46.39;95121.69;5076176;28;20219;-22
2023/09/17 09:50:00;;;;;;;0.30;0.30;;;25.60;61.10;;;25.83;46.80;95119.50;5076295;28;20190;-23
2023/09/17 09:52:28;;;;;;;0.30;0.30;;;25.60;61.10;;;25.85;46.79;95113.84;5076413;28;20220;-24
2023/09/17 09:54:56;;;;;;;0.30;0.30;;;25.60;61.10;;;25.89;46.54;95126.44;5076168;28;20198;-21
2023/09/17 09:57:25;;;;;;;0.30;0.30;;;25.60;61.10;;;25.89;46.48;95126.44;5076095;28;20245;-24
2023/09/17 09:59:53;;;;;;;0.30;0.30;;;25.70;61.20;;;25.94;46.87;95122.09;5076625;28;20277;-26
2023/09/17 10:02:21;;;;;;;0.50;0.50;;;25.70;61.10;;;25.97;46.93;95118.84;5075339;28;20216;-22
2023/09/17 10:04:49;;;;;;;0.40;0.40;;;25.70;62.10;;;25.98;46.88;95115.06;5075109;28;20198;-22
2023/09/17 10:07:17;;;;;;;0.30;0.30;;;25.70;61.10;;;26.00;46.63;95112.88;5076194;28;20539;-22
2023/09/17 10:09:46;;;;;;;0.30;0.30;;;25.80;61.20;;;26.01;46.90;95109.13;5075900;28;20191;-22
2023/09/17 10:12:13;;;;;;;0.30;0.30;;;25.80;62.10;;;26.07;46.61;95112.59;5074708;28;20239;-22
2023/09/17 10:14:41;;;;;;;0.30;0.30;;;25.80;61.20;;;26.07;46.49;95116.06;5074226;28;20615;-22
2023/09/17 10:17:10;;;;;;;0.32;0.32;;;25.80;61.20;;;26.08;46.71;95117.69;5075766;28;20216;-21
2023/09/17 10:19:40;;;;;;;0.30;0.30;;;25.80;61.30;;;26.11;46.90;95114.44;5075937;28;20211;-22
2023/09/17 10:22:10;;;;;;;0.30;0.30;;;25.90;61.10;;;26.12;46.75;95110.66;5075644;28;20250;-22
2023/09/17 10:24:38;;;;;;;0.40;0.40;;;25.90;61.30;;;26.16;46.56;95116.25;5075813;28;20261;-22
2023/09/17 10:27:06;;;;;;;0.30;0.30;;;25.90;61.20;;;26.17;46.88;95112.47;5075472;28;20210;-22